Time;durP1;ratioP1;P1;durP2;ratioP2;P2;SDS_P1;SDS_P2;PMS_P1;PMS_P2;Temp;Humidity;BMP_temperature;BMP_pressure;BME280_temperature;BME280_humidity;BME280_pressure;Samples;Min_cycle;Max_cycle;Signal;HPM_P1;HPM_P2
2021/03/06 12:57:05;;;;;;;2.42;1.80;;;;;;;;;;5013443;28;20400;-79
2021/03/06 12:59:31;;;;;;;3.03;2.10;;;;;;;;;;5000999;28;20049;-78
2021/03/06 13:01:57;;;;;;;2.78;1.80;;;;;;;;;;5020155;28;20479;-79
2021/03/06 13:04:23;;;;;;;4.35;2.45;;;;;;;;;;4990931;28;20035;-80
2021/03/06 13:06:49;;;;;;;3.67;2.40;;;;;;;;;;4999963;28;20034;-80
2021/03/06 13:09:15;;;;;;;3.78;2.30;;;;;;;;;;4984322;28;20041;-79
2021/03/06 13:11:41;;;;;;;2.88;1.80;;;;;;;;;;5000645;28;20047;-81
2021/03/06 13:14:08;;;;;;;3.38;2.00;;;;;;;;;;5072376;28;20041;-80
2021/03/06 13:16:34;;;;;;;2.35;1.80;;;;;;;;;;4987437;28;20109;-81
2021/03/06 13:19:00;;;;;;;3.17;1.90;;;;;;;;;;5062541;28;20061;-79
2021/03/06 13:21:26;;;;;;;2.83;1.85;;;;;;;;;;5002834;28;20023;-79
2021/03/06 13:23:52;;;;;;;2.55;1.63;;;;;;;;;;4973218;28;20037;-79
2021/03/06 13:26:18;;;;;;;3.28;2.00;;;;;;;;;;4996284;28;20035;-80
2021/03/06 13:28:44;;;;;;;3.05;2.10;;;;;;;;;;4995593;28;20031;-79
2021/03/06 13:31:10;;;;;;;2.25;1.70;;;;;;;;;;4998131;28;20029;-79
2021/03/06 13:33:36;;;;;;;4.90;1.90;;;;;;;;;;4994444;28;20099;-80
2021/03/06 13:36:03;;;;;;;4.13;1.60;;;;;;;;;;5000686;28;20041;-81
2021/03/06 13:38:29;;;;;;;3.97;2.17;;;;;;;;;;4992630;28;20023;-80
2021/03/06 13:40:55;;;;;;;5.55;1.73;;;;;;;;;;4996180;28;20058;-83
2021/03/06 13:43:21;;;;;;;3.88;1.85;;;;;;;;;;4975026;28;20038;-83
2021/03/06 13:45:47;;;;;;;2.60;1.75;;;;;;;;;;4993614;28;20035;-80
2021/03/06 13:48:13;;;;;;;2.47;1.55;;;;;;;;;;4969344;28;20027;-81
2021/03/06 13:50:39;;;;;;;4.00;1.90;;;;;;;;;;5029173;28;20035;-80
2021/03/06 13:53:05;;;;;;;2.08;1.58;;;;;;;;;;4960628;28;20035;-80
2021/03/06 13:55:32;;;;;;;2.45;1.70;;;;;;;;;;4997575;28;20039;-81
2021/03/06 13:57:58;;;;;;;3.60;1.70;;;;;;;;;;4980909;28;20049;-81
2021/03/06 14:00:24;;;;;;;3.58;1.90;;;;;;;;;;4961904;28;20561;-82
2021/03/06 14:02:51;;;;;;;2.85;2.00;;;;;;;;;;4975939;28;20027;-82
2021/03/06 14:05:17;;;;;;;2.97;1.63;;;;;;;;;;4959635;28;20035;-80
2021/03/06 14:07:43;;;;;;;2.65;1.75;;;;;;;;;;4984763;28;20042;-81
2021/03/06 14:10:09;;;;;;;5.88;1.88;;;;;;;;;;4968711;28;20031;-81
2021/03/06 14:12:35;;;;;;;4.25;2.25;;;;;;;;;;4974880;28;20049;-80
2021/03/06 14:15:02;;;;;;;2.83;1.60;;;;;;;;;;4976662;28;20035;-80
2021/03/06 14:17:29;;;;;;;6.25;2.03;;;;;;;;;;4988187;28;20121;-81
2021/03/06 14:19:55;;;;;;;3.97;1.63;;;;;;;;;;4978750;28;20034;-81
2021/03/06 14:22:21;;;;;;;2.75;1.70;;;;;;;;;;4979298;28;20034;-81
2021/03/06 14:24:47;;;;;;;3.40;1.65;;;;;;;;;;4962385;28;20118;-81
2021/03/06 14:27:13;;;;;;;3.53;1.70;;;;;;;;;;4979485;28;20054;-81
2021/03/06 14:29:39;;;;;;;3.70;2.65;;;;;;;;;;4962683;28;20038;-81
2021/03/06 14:32:05;;;;;;;2.47;1.50;;;;;;;;;;4962620;28;20031;-81
2021/03/06 14:34:31;;;;;;;4.10;1.88;;;;;;;;;;4964582;28;20069;-81
2021/03/06 14:36:57;;;;;;;3.35;2.00;;;;;;;;;;4985128;28;20035;-81
2021/03/06 14:39:24;;;;;;;6.90;1.60;;;;;;;;;;5059055;28;20042;-81
2021/03/06 14:41:50;;;;;;;3.80;1.70;;;;;;;;;;5058453;28;20068;-81
2021/03/06 14:44:16;;;;;;;3.33;2.03;;;;;;;;;;4992259;28;20045;-81
2021/03/06 14:46:42;;;;;;;2.95;1.52;;;;;;;;;;5064181;28;20031;-81
2021/03/06 14:49:08;;;;;;;3.85;2.08;;;;;;;;;;4949268;28;20054;-80
2021/03/06 14:51:35;;;;;;;2.80;1.60;;;;;;;;;;5059193;28;20114;-80
2021/03/06 14:54:01;;;;;;;3.17;1.70;;;;;;;;;;5053088;28;20031;-80
2021/03/06 14:56:28;;;;;;;3.95;1.95;;;;;;;;;;5051886;28;20035;-80
2021/03/06 14:58:54;;;;;;;2.13;1.70;;;;;;;;;;5043583;28;20084;-80
2021/03/06 15:01:20;;;;;;;3.15;1.90;;;;;;;;;;4967280;28;20034;-81
2021/03/06 15:03:46;;;;;;;3.08;1.80;;;;;;;;;;5045844;28;20023;-81
2021/03/06 15:06:12;;;;;;;5.05;2.28;;;;;;;;;;5043885;28;20057;-81
2021/03/06 15:08:38;;;;;;;4.05;1.92;;;;;;;;;;5031661;28;20023;-80
2021/03/06 15:11:04;;;;;;;3.22;2.13;;;;;;;;;;5053550;28;20396;-80
2021/03/06 15:13:31;;;;;;;2.47;1.55;;;;;;;;;;5031813;28;20044;-80
2021/03/06 15:15:57;;;;;;;4.78;2.17;;;;;;;;;;5041421;28;20031;-80
2021/03/06 15:18:23;;;;;;;1.85;1.50;;;;;;;;;;4956754;28;20081;-81
2021/03/06 15:20:49;;;;;;;5.05;2.53;;;;;;;;;;5045287;28;20027;-80
2021/03/06 15:23:15;;;;;;;7.82;2.50;;;;;;;;;;4942998;28;20113;-80
2021/03/06 15:25:42;;;;;;;2.78;1.75;;;;;;;;;;4970234;28;20038;-81
2021/03/06 15:28:08;;;;;;;4.22;2.80;;;;;;;;;;5042253;28;20062;-81
2021/03/06 15:30:34;;;;;;;4.05;1.90;;;;;;;;;;4978420;28;20034;-81
2021/03/06 15:33:00;;;;;;;2.97;1.67;;;;;;;;;;4957603;28;20027;-81
2021/03/06 15:35:26;;;;;;;3.45;1.63;;;;;;;;;;4976013;28;20027;-81
2021/03/06 15:37:53;;;;;;;2.72;1.70;;;;;;;;;;4959765;28;20027;-80
2021/03/06 15:40:20;;;;;;;3.28;2.20;;;;;;;;;;4948042;28;20030;-80
2021/03/06 15:42:46;;;;;;;2.63;1.98;;;;;;;;;;5039952;28;20050;-80
2021/03/06 15:45:12;;;;;;;4.90;2.20;;;;;;;;;;4957241;28;20515;-80
2021/03/06 15:47:39;;;;;;;4.20;2.60;;;;;;;;;;5039783;28;20047;-80
2021/03/06 15:50:06;;;;;;;3.45;2.22;;;;;;;;;;4959195;28;20496;-80
2021/03/06 15:52:32;;;;;;;4.80;2.58;;;;;;;;;;5059911;28;20033;-80
2021/03/06 15:54:58;;;;;;;3.25;2.17;;;;;;;;;;4964267;28;20031;-80
2021/03/06 15:57:24;;;;;;;3.42;1.70;;;;;;;;;;4958273;28;20030;-80
2021/03/06 15:59:50;;;;;;;2.72;1.65;;;;;;;;;;4975419;28;20038;-80
2021/03/06 16:02:16;;;;;;;3.20;2.08;;;;;;;;;;5040720;28;20038;-80
2021/03/06 16:04:44;;;;;;;4.47;2.90;;;;;;;;;;4957685;28;20457;-80
2021/03/06 16:07:10;;;;;;;4.55;2.45;;;;;;;;;;4960354;28;20428;-81
2021/03/06 16:09:36;;;;;;;5.00;2.50;;;;;;;;;;5032155;28;20050;-77
2021/03/06 16:12:02;;;;;;;2.47;1.83;;;;;;;;;;4973326;28;20105;-74
2021/03/06 16:14:28;;;;;;;4.75;1.50;;;;;;;;;;4975983;28;20061;-74
2021/03/06 16:16:54;;;;;;;5.43;2.40;;;;;;;;;;4969169;28;20411;-74
2021/03/06 16:19:20;;;;;;;2.53;1.60;;;;;;;;;;4980857;28;20019;-74
2021/03/06 16:21:46;;;;;;;5.47;1.67;;;;;;;;;;4975937;28;20077;-75
2021/03/06 16:24:12;;;;;;;4.57;2.63;;;;;;;;;;4975205;28;20584;-76
2021/03/06 16:26:38;;;;;;;4.47;2.30;;;;;;;;;;4954332;28;20035;-76
2021/03/06 16:29:04;;;;;;;4.28;2.22;;;;;;;;;;4967454;28;20034;-76
2021/03/06 16:31:31;;;;;;;4.65;2.35;;;;;;;;;;4964915;28;20035;-77
2021/03/06 16:33:58;;;;;;;4.50;2.75;;;;;;;;;;5019648;28;20066;-76
2021/03/06 16:36:24;;;;;;;4.65;2.60;;;;;;;;;;4965397;28;20534;-76
2021/03/06 16:38:54;;;;;;;3.83;2.30;;;;;;;;;;4965621;28;20023;-77
2021/03/06 16:41:20;;;;;;;8.70;2.67;;;;;;;;;;4964655;28;20503;-76
2021/03/06 16:43:46;;;;;;;6.80;2.80;;;;;;;;;;4964016;28;20023;-76
2021/03/06 16:46:13;;;;;;;3.70;2.40;;;;;;;;;;4965746;28;20083;-76
2021/03/06 16:48:39;;;;;;;3.53;2.33;;;;;;;;;;4965993;28;20550;-76
2021/03/06 16:51:05;;;;;;;3.75;1.98;;;;;;;;;;5019182;28;20588;-76
2021/03/06 16:53:31;;;;;;;5.78;2.53;;;;;;;;;;4965051;28;20101;-76
2021/03/06 16:55:57;;;;;;;5.50;3.20;;;;;;;;;;4948589;28;20539;-76
2021/03/06 16:58:23;;;;;;;6.40;2.83;;;;;;;;;;5029158;28;20031;-76
2021/03/06 17:00:49;;;;;;;6.25;3.40;;;;;;;;;;5030944;28;20403;-76
2021/03/06 17:03:15;;;;;;;3.65;2.67;;;;;;;;;;5051004;28;20487;-77
2021/03/06 17:05:41;;;;;;;4.03;2.40;;;;;;;;;;4969196;28;20092;-77
2021/03/06 17:08:08;;;;;;;3.78;2.13;;;;;;;;;;4969823;28;20035;-77
2021/03/06 17:10:35;;;;;;;4.50;2.25;;;;;;;;;;4967808;28;20628;-77
2021/03/06 17:13:01;;;;;;;7.45;2.28;;;;;;;;;;5068301;28;20039;-77
2021/03/06 17:15:27;;;;;;;7.28;3.10;;;;;;;;;;5053242;28;20039;-77
2021/03/06 17:17:53;;;;;;;4.75;2.88;;;;;;;;;;4972079;28;20538;-77
2021/03/06 17:20:19;;;;;;;4.25;2.65;;;;;;;;;;4952436;28;20031;-77
2021/03/06 17:22:45;;;;;;;5.32;2.95;;;;;;;;;;4968399;28;20501;-77
2021/03/06 17:25:12;;;;;;;4.97;2.97;;;;;;;;;;4955685;28;20034;-77
2021/03/06 17:27:38;;;;;;;3.97;2.90;;;;;;;;;;4952715;28;20034;-76
2021/03/06 17:30:05;;;;;;;5.30;3.05;;;;;;;;;;4952883;28;20031;-76
2021/03/06 17:32:31;;;;;;;9.90;3.65;;;;;;;;;;4966816;28;20030;-75
2021/03/06 17:34:58;;;;;;;11.40;4.40;;;;;;;;;;4967136;28;20027;-76
2021/03/06 17:37:24;;;;;;;7.60;4.20;;;;;;;;;;4968086;28;20430;-76
2021/03/06 17:39:51;;;;;;;11.18;5.63;;;;;;;;;;4968720;28;20051;-76
2021/03/06 17:42:17;;;;;;;11.38;5.10;;;;;;;;;;4973744;28;20038;-76
2021/03/06 17:44:44;;;;;;;12.43;4.85;;;;;;;;;;4955884;28;20062;-76
2021/03/06 17:47:10;;;;;;;9.60;4.90;;;;;;;;;;4977229;28;20034;-76
2021/03/06 17:49:36;;;;;;;8.15;4.15;;;;;;;;;;4973830;28;20113;-76
2021/03/06 17:52:02;;;;;;;8.43;4.93;;;;;;;;;;4962484;28;20027;-76
2021/03/06 17:54:28;;;;;;;6.78;4.15;;;;;;;;;;4976331;28;20440;-77
2021/03/06 17:56:54;;;;;;;12.10;5.80;;;;;;;;;;4967952;28;20091;-78
2021/03/06 17:59:20;;;;;;;11.32;7.10;;;;;;;;;;4931706;28;20404;-76
2021/03/06 18:01:48;;;;;;;21.83;14.95;;;;;;;;;;5007485;28;20031;-78
2021/03/06 18:04:14;;;;;;;36.83;25.95;;;;;;;;;;4971546;28;20023;-77
2021/03/06 18:06:40;;;;;;;36.65;25.45;;;;;;;;;;4965937;28;20031;-76
2021/03/06 18:09:07;;;;;;;26.35;17.60;;;;;;;;;;4970588;28;20456;-77
2021/03/06 18:11:33;;;;;;;20.25;14.18;;;;;;;;;;4971438;28;20022;-77
2021/03/06 18:13:59;;;;;;;14.02;9.23;;;;;;;;;;4970269;28;20522;-77
2021/03/06 18:16:25;;;;;;;15.43;9.80;;;;;;;;;;4958176;28;20110;-77
2021/03/06 18:18:51;;;;;;;19.08;13.07;;;;;;;;;;4952851;28;20062;-76
2021/03/06 18:21:18;;;;;;;23.05;13.20;;;;;;;;;;4952835;28;20058;-76
2021/03/06 18:23:44;;;;;;;19.38;12.20;;;;;;;;;;5037822;28;20024;-77
2021/03/06 18:26:10;;;;;;;16.92;10.50;;;;;;;;;;4963304;28;20030;-76
2021/03/06 18:28:36;;;;;;;18.65;11.77;;;;;;;;;;4966020;28;20110;-77
2021/03/06 18:31:02;;;;;;;18.65;10.93;;;;;;;;;;4973784;28;20035;-77
2021/03/06 18:33:28;;;;;;;22.38;13.32;;;;;;;;;;4933862;28;20038;-77
2021/03/06 18:35:54;;;;;;;57.92;29.55;;;;;;;;;;4952113;28;20419;-77
2021/03/06 18:38:20;;;;;;;107.00;50.60;;;;;;;;;;4952710;28;20054;-76
2021/03/06 18:40:46;;;;;;;76.45;36.05;;;;;;;;;;4952813;28;20085;-76
2021/03/06 18:43:13;;;;;;;49.95;27.45;;;;;;;;;;4934780;28;20019;-76
2021/03/06 18:45:39;;;;;;;96.28;49.72;;;;;;;;;;4936113;28;20063;-77
2021/03/06 18:48:06;;;;;;;64.93;31.77;;;;;;;;;;4955722;28;20030;-77
2021/03/06 18:50:32;;;;;;;105.95;46.85;;;;;;;;;;4938340;28;20118;-77
2021/03/06 18:52:58;;;;;;;39.13;21.08;;;;;;;;;;4934952;28;20057;-76
